sensor_id;sensor_type;location;lat;lon;timestamp;P1;durP1;ratioP1;P2;durP2;ratioP2
36599;SDS011;35385;55.668;37.508;2023-02-01T00:01:05;24.70;;;13.85;;
36599;SDS011;35385;55.668;37.508;2023-02-01T00:02:08;23.05;;;14.02;;
36599;SDS011;35385;55.668;37.508;2023-02-01T00:04:13;24.90;;;13.48;;
36599;SDS011;35385;55.668;37.508;2023-02-01T00:05:14;24.65;;;13.63;;
36599;SDS011;35385;55.668;37.508;2023-02-01T00:06:15;24.67;;;13.47;;
36599;SDS011;35385;55.668;37.508;2023-02-01T00:07:15;24.80;;;14.23;;
36599;SDS011;35385;55.668;37.508;2023-02-01T00:08:16;24.43;;;14.87;;
36599;SDS011;35385;55.668;37.508;2023-02-01T00:09:16;25.07;;;14.63;;
36599;SDS011;35385;55.668;37.508;2023-02-01T00:10:17;23.07;;;13.93;;
36599;SDS011;35385;55.668;37.508;2023-02-01T00:11:18;25.85;;;14.25;;
36599;SDS011;35385;55.668;37.508;2023-02-01T00:12:18;22.90;;;13.60;;
36599;SDS011;35385;55.668;37.508;2023-02-01T00:13:19;24.30;;;13.37;;
36599;SDS011;35385;55.668;37.508;2023-02-01T00:14:19;26.30;;;13.93;;
36599;SDS011;35385;55.668;37.508;2023-02-01T00:15:20;24.63;;;14.90;;
36599;SDS011;35385;55.668;37.508;2023-02-01T00:16:25;22.50;;;13.57;;
36599;SDS011;35385;55.668;37.508;2023-02-01T00:17:28;23.83;;;14.30;;
36599;SDS011;35385;55.668;37.508;2023-02-01T00:18:28;24.87;;;13.57;;
36599;SDS011;35385;55.668;37.508;2023-02-01T00:19:31;24.88;;;14.20;;
36599;SDS011;35385;55.668;37.508;2023-02-01T00:20:33;25.25;;;13.65;;
36599;SDS011;35385;55.668;37.508;2023-02-01T00:21:33;25.50;;;14.80;;
36599;SDS011;35385;55.668;37.508;2023-02-01T00:22:34;24.03;;;13.37;;
36599;SDS011;35385;55.668;37.508;2023-02-01T00:23:35;22.87;;;13.77;;
36599;SDS011;35385;55.668;37.508;2023-02-01T00:24:36;25.67;;;13.82;;
36599;SDS011;35385;55.668;37.508;2023-02-01T00:25:36;27.20;;;14.70;;
36599;SDS011;35385;55.668;37.508;2023-02-01T00:26:41;23.17;;;14.70;;
36599;SDS011;35385;55.668;37.508;2023-02-01T00:27:43;23.77;;;14.15;;
36599;SDS011;35385;55.668;37.508;2023-02-01T00:28:43;26.00;;;14.67;;
36599;SDS011;35385;55.668;37.508;2023-02-01T00:29:44;23.75;;;13.90;;
36599;SDS011;35385;55.668;37.508;2023-02-01T00:30:55;26.15;;;14.82;;
36599;SDS011;35385;55.668;37.508;2023-02-01T00:33:00;24.60;;;13.85;;
36599;SDS011;35385;55.668;37.508;2023-02-01T00:34:01;21.17;;;13.20;;
36599;SDS011;35385;55.668;37.508;2023-02-01T00:35:01;24.07;;;13.60;;
36599;SDS011;35385;55.668;37.508;2023-02-01T00:36:04;22.25;;;13.48;;
36599;SDS011;35385;55.668;37.508;2023-02-01T00:37:06;22.63;;;13.15;;
36599;SDS011;35385;55.668;37.508;2023-02-01T00:38:07;23.60;;;14.40;;
36599;SDS011;35385;55.668;37.508;2023-02-01T00:39:08;28.63;;;15.10;;
36599;SDS011;35385;55.668;37.508;2023-02-01T00:41:14;25.50;;;13.60;;
36599;SDS011;35385;55.668;37.508;2023-02-01T00:42:16;21.70;;;12.80;;
36599;SDS011;35385;55.668;37.508;2023-02-01T00:43:17;24.13;;;13.40;;
36599;SDS011;35385;55.668;37.508;2023-02-01T00:44:17;23.57;;;13.33;;
36599;SDS011;35385;55.668;37.508;2023-02-01T00:45:18;22.37;;;13.33;;
36599;SDS011;35385;55.668;37.508;2023-02-01T00:46:19;23.15;;;13.20;;
36599;SDS011;35385;55.668;37.508;2023-02-01T00:47:21;24.83;;;13.30;;
36599;SDS011;35385;55.668;37.508;2023-02-01T00:48:22;23.47;;;12.93;;
36599;SDS011;35385;55.668;37.508;2023-02-01T00:49:22;21.53;;;13.23;;
36599;SDS011;35385;55.668;37.508;2023-02-01T00:50:23;21.90;;;13.10;;
36599;SDS011;35385;55.668;37.508;2023-02-01T00:51:24;24.87;;;13.20;;
36599;SDS011;35385;55.668;37.508;2023-02-01T00:52:27;19.85;;;12.88;;
36599;SDS011;35385;55.668;37.508;2023-02-01T00:53:27;22.30;;;13.53;;
36599;SDS011;35385;55.668;37.508;2023-02-01T00:54:29;21.40;;;12.85;;
36599;SDS011;35385;55.668;37.508;2023-02-01T00:55:29;20.07;;;12.47;;
36599;SDS011;35385;55.668;37.508;2023-02-01T00:56:30;20.30;;;12.93;;
36599;SDS011;35385;55.668;37.508;2023-02-01T00:57:30;21.37;;;12.53;;
36599;SDS011;35385;55.668;37.508;2023-02-01T00:58:31;20.63;;;13.13;;
36599;SDS011;35385;55.668;37.508;2023-02-01T00:59:33;20.73;;;12.45;;
36599;SDS011;35385;55.668;37.508;2023-02-01T01:00:33;18.27;;;12.07;;
36599;SDS011;35385;55.668;37.508;2023-02-01T01:01:34;23.20;;;13.17;;
36599;SDS011;35385;55.668;37.508;2023-02-01T01:02:34;25.17;;;13.17;;
36599;SDS011;35385;55.668;37.508;2023-02-01T01:03:39;19.37;;;12.27;;
36599;SDS011;35385;55.668;37.508;2023-02-01T01:04:41;20.17;;;12.32;;
36599;SDS011;35385;55.668;37.508;2023-02-01T01:05:42;22.27;;;13.50;;
36599;SDS011;35385;55.668;37.508;2023-02-01T01:06:43;21.67;;;13.10;;
36599;SDS011;35385;55.668;37.508;2023-02-01T01:07:43;21.30;;;12.53;;
36599;SDS011;35385;55.668;37.508;2023-02-01T01:08:44;20.93;;;12.83;;
36599;SDS011;35385;55.668;37.508;2023-02-01T01:09:44;22.27;;;12.90;;
36599;SDS011;35385;55.668;37.508;2023-02-01T01:10:45;19.57;;;13.17;;
36599;SDS011;35385;55.668;37.508;2023-02-01T01:11:45;20.90;;;12.33;;
36599;SDS011;35385;55.668;37.508;2023-02-01T01:12:46;24.83;;;12.87;;
36599;SDS011;35385;55.668;37.508;2023-02-01T01:13:47;19.00;;;12.00;;
36599;SDS011;35385;55.668;37.508;2023-02-01T01:14:49;23.67;;;12.40;;
36599;SDS011;35385;55.668;37.508;2023-02-01T01:15:49;20.33;;;12.50;;
36599;SDS011;35385;55.668;37.508;2023-02-01T01:16:50;23.23;;;12.77;;
36599;SDS011;35385;55.668;37.508;2023-02-01T01:17:51;21.63;;;12.93;;
36599;SDS011;35385;55.668;37.508;2023-02-01T01:18:51;22.23;;;12.30;;
36599;SDS011;35385;55.668;37.508;2023-02-01T01:19:54;19.48;;;12.38;;
36599;SDS011;35385;55.668;37.508;2023-02-01T01:20:55;25.23;;;13.23;;
36599;SDS011;35385;55.668;37.508;2023-02-01T01:21:55;21.33;;;12.60;;
36599;SDS011;35385;55.668;37.508;2023-02-01T01:22:56;19.93;;;12.23;;
36599;SDS011;35385;55.668;37.508;2023-02-01T01:23:56;22.63;;;13.33;;
36599;SDS011;35385;55.668;37.508;2023-02-01T01:24:57;20.02;;;12.13;;
36599;SDS011;35385;55.668;37.508;2023-02-01T01:25:58;19.47;;;11.80;;
36599;SDS011;35385;55.668;37.508;2023-02-01T01:26:58;22.23;;;13.03;;
36599;SDS011;35385;55.668;37.508;2023-02-01T01:27:59;20.43;;;12.33;;
36599;SDS011;35385;55.668;37.508;2023-02-01T01:28:59;22.33;;;13.00;;
36599;SDS011;35385;55.668;37.508;2023-02-01T01:30:00;21.03;;;12.40;;
36599;SDS011;35385;55.668;37.508;2023-02-01T01:31:01;19.20;;;11.65;;
36599;SDS011;35385;55.668;37.508;2023-02-01T01:32:02;22.75;;;13.07;;
36599;SDS011;35385;55.668;37.508;2023-02-01T01:33:03;20.53;;;12.70;;
36599;SDS011;35385;55.668;37.508;2023-02-01T01:34:03;26.53;;;12.20;;
36599;SDS011;35385;55.668;37.508;2023-02-01T01:35:04;23.33;;;12.77;;
36599;SDS011;35385;55.668;37.508;2023-02-01T01:36:06;23.33;;;13.27;;
36599;SDS011;35385;55.668;37.508;2023-02-01T01:37:10;18.23;;;11.00;;
36599;SDS011;35385;55.668;37.508;2023-02-01T01:38:10;21.53;;;12.67;;
36599;SDS011;35385;55.668;37.508;2023-02-01T01:39:11;20.10;;;11.65;;
36599;SDS011;35385;55.668;37.508;2023-02-01T01:40:12;20.03;;;12.20;;
36599;SDS011;35385;55.668;37.508;2023-02-01T01:41:14;18.50;;;11.65;;
36599;SDS011;35385;55.668;37.508;2023-02-01T01:42:16;19.13;;;12.70;;
36599;SDS011;35385;55.668;37.508;2023-02-01T01:43:18;21.43;;;12.47;;
36599;SDS011;35385;55.668;37.508;2023-02-01T01:46:20;20.58;;;11.57;;
36599;SDS011;35385;55.668;37.508;2023-02-01T01:47:23;18.73;;;11.60;;
36599;SDS011;35385;55.668;37.508;2023-02-01T01:48:31;18.83;;;11.75;;
36599;SDS011;35385;55.668;37.508;2023-02-01T01:49:31;20.63;;;12.80;;
36599;SDS011;35385;55.668;37.508;2023-02-01T01:50:42;22.30;;;12.13;;
36599;SDS011;35385;55.668;37.508;2023-02-01T01:51:52;21.33;;;12.43;;
36599;SDS011;35385;55.668;37.508;2023-02-01T01:52:56;24.13;;;13.63;;
36599;SDS011;35385;55.668;37.508;2023-02-01T01:54:02;21.30;;;12.45;;
36599;SDS011;35385;55.668;37.508;2023-02-01T01:55:13;19.95;;;12.13;;
36599;SDS011;35385;55.668;37.508;2023-02-01T01:56:15;20.85;;;12.13;;
36599;SDS011;35385;55.668;37.508;2023-02-01T01:57:26;19.50;;;12.57;;
36599;SDS011;35385;55.668;37.508;2023-02-01T01:58:35;20.00;;;12.60;;
36599;SDS011;35385;55.668;37.508;2023-02-01T01:59:37;19.17;;;12.52;;
36599;SDS011;35385;55.668;37.508;2023-02-01T02:00:40;21.35;;;12.38;;
36599;SDS011;35385;55.668;37.508;2023-02-01T02:01:41;19.95;;;12.38;;
36599;SDS011;35385;55.668;37.508;2023-02-01T02:02:43;25.10;;;12.57;;
36599;SDS011;35385;55.668;37.508;2023-02-01T02:03:47;19.35;;;11.68;;
36599;SDS011;35385;55.668;37.508;2023-02-01T02:04:48;20.98;;;12.80;;
36599;SDS011;35385;55.668;37.508;2023-02-01T02:05:49;21.17;;;12.82;;
36599;SDS011;35385;55.668;37.508;2023-02-01T02:07:13;21.40;;;12.25;;
36599;SDS011;35385;55.668;37.508;2023-02-01T02:08:17;20.52;;;12.15;;
36599;SDS011;35385;55.668;37.508;2023-02-01T02:09:20;25.38;;;13.35;;
36599;SDS011;35385;55.668;37.508;2023-02-01T02:10:21;20.87;;;12.90;;
36599;SDS011;35385;55.668;37.508;2023-02-01T02:11:41;20.48;;;12.13;;
36599;SDS011;35385;55.668;37.508;2023-02-01T02:12:43;19.17;;;12.02;;
36599;SDS011;35385;55.668;37.508;2023-02-01T02:13:50;20.05;;;12.15;;
36599;SDS011;35385;55.668;37.508;2023-02-01T02:14:53;23.20;;;12.80;;
36599;SDS011;35385;55.668;37.508;2023-02-01T02:18:24;22.08;;;12.98;;
36599;SDS011;35385;55.668;37.508;2023-02-01T02:30:26;23.50;;;12.85;;
36599;SDS011;35385;55.668;37.508;2023-02-01T02:34:40;21.52;;;12.80;;
36599;SDS011;35385;55.668;37.508;2023-02-01T02:36:01;23.48;;;12.68;;
36599;SDS011;35385;55.668;37.508;2023-02-01T02:38:49;22.58;;;12.98;;
36599;SDS011;35385;55.668;37.508;2023-02-01T02:41:34;20.58;;;12.93;;
36599;SDS011;35385;55.668;37.508;2023-02-01T02:43:32;19.90;;;13.00;;
36599;SDS011;35385;55.668;37.508;2023-02-01T02:45:04;21.42;;;12.82;;
36599;SDS011;35385;55.668;37.508;2023-02-01T02:46:35;23.63;;;12.20;;
36599;SDS011;35385;55.668;37.508;2023-02-01T02:48:14;27.35;;;13.77;;
36599;SDS011;35385;55.668;37.508;2023-02-01T02:49:23;24.02;;;13.27;;
36599;SDS011;35385;55.668;37.508;2023-02-01T02:50:37;21.60;;;12.80;;
36599;SDS011;35385;55.668;37.508;2023-02-01T02:53:32;22.30;;;13.48;;
36599;SDS011;35385;55.668;37.508;2023-02-01T02:54:55;25.58;;;13.82;;
36599;SDS011;35385;55.668;37.508;2023-02-01T02:55:57;23.50;;;13.10;;
36599;SDS011;35385;55.668;37.508;2023-02-01T02:57:21;26.92;;;14.13;;
36599;SDS011;35385;55.668;37.508;2023-02-01T02:58:45;23.60;;;13.68;;
36599;SDS011;35385;55.668;37.508;2023-02-01T03:00:09;22.92;;;13.20;;
36599;SDS011;35385;55.668;37.508;2023-02-01T03:01:31;21.85;;;13.35;;
36599;SDS011;35385;55.668;37.508;2023-02-01T03:02:51;22.30;;;13.18;;
36599;SDS011;35385;55.668;37.508;2023-02-01T03:04:11;21.58;;;13.63;;
36599;SDS011;35385;55.668;37.508;2023-02-01T03:05:17;24.83;;;13.65;;
36599;SDS011;35385;55.668;37.508;2023-02-01T03:06:18;21.60;;;13.60;;
36599;SDS011;35385;55.668;37.508;2023-02-01T03:08:44;21.55;;;13.32;;
36599;SDS011;35385;55.668;37.508;2023-02-01T03:09:45;23.90;;;14.23;;
36599;SDS011;35385;55.668;37.508;2023-02-01T03:11:56;21.95;;;13.60;;
36599;SDS011;35385;55.668;37.508;2023-02-01T03:14:33;24.48;;;13.68;;
36599;SDS011;35385;55.668;37.508;2023-02-01T03:17:00;24.27;;;13.95;;
36599;SDS011;35385;55.668;37.508;2023-02-01T03:18:10;22.83;;;13.02;;
36599;SDS011;35385;55.668;37.508;2023-02-01T03:20:27;24.60;;;14.38;;
36599;SDS011;35385;55.668;37.508;2023-02-01T03:22:35;20.27;;;12.25;;
36599;SDS011;35385;55.668;37.508;2023-02-01T03:23:39;26.58;;;13.45;;
36599;SDS011;35385;55.668;37.508;2023-02-01T03:24:43;22.95;;;13.73;;
36599;SDS011;35385;55.668;37.508;2023-02-01T03:25:47;24.08;;;13.20;;
36599;SDS011;35385;55.668;37.508;2023-02-01T03:26:54;24.77;;;13.57;;
36599;SDS011;35385;55.668;37.508;2023-02-01T03:29:23;24.20;;;14.45;;
36599;SDS011;35385;55.668;37.508;2023-02-01T03:30:45;21.33;;;13.70;;
36599;SDS011;35385;55.668;37.508;2023-02-01T03:31:46;21.75;;;13.52;;
36599;SDS011;35385;55.668;37.508;2023-02-01T03:32:47;26.23;;;13.70;;
36599;SDS011;35385;55.668;37.508;2023-02-01T03:33:59;22.95;;;13.35;;
36599;SDS011;35385;55.668;37.508;2023-02-01T03:34:59;23.00;;;14.00;;
36599;SDS011;35385;55.668;37.508;2023-02-01T03:37:31;23.60;;;13.35;;
36599;SDS011;35385;55.668;37.508;2023-02-01T03:40:00;25.92;;;14.60;;
36599;SDS011;35385;55.668;37.508;2023-02-01T03:42:38;24.08;;;13.93;;
36599;SDS011;35385;55.668;37.508;2023-02-01T03:43:52;26.48;;;14.10;;
36599;SDS011;35385;55.668;37.508;2023-02-01T03:46:00;27.03;;;14.83;;
36599;SDS011;35385;55.668;37.508;2023-02-01T03:47:04;22.63;;;14.35;;
36599;SDS011;35385;55.668;37.508;2023-02-01T03:48:10;23.35;;;13.63;;
36599;SDS011;35385;55.668;37.508;2023-02-01T03:49:16;24.25;;;14.23;;
36599;SDS011;35385;55.668;37.508;2023-02-01T03:50:24;22.88;;;13.95;;
36599;SDS011;35385;55.668;37.508;2023-02-01T03:51:26;27.48;;;14.52;;
36599;SDS011;35385;55.668;37.508;2023-02-01T03:52:41;25.30;;;15.50;;
36599;SDS011;35385;55.668;37.508;2023-02-01T03:53:44;27.52;;;14.77;;
36599;SDS011;35385;55.668;37.508;2023-02-01T03:54:48;25.15;;;14.15;;
36599;SDS011;35385;55.668;37.508;2023-02-01T03:55:51;26.65;;;15.75;;
36599;SDS011;35385;55.668;37.508;2023-02-01T03:59:01;33.90;;;16.55;;
36599;SDS011;35385;55.668;37.508;2023-02-01T04:00:06;25.93;;;14.93;;
36599;SDS011;35385;55.668;37.508;2023-02-01T04:01:28;26.90;;;14.70;;
36599;SDS011;35385;55.668;37.508;2023-02-01T04:02:30;28.38;;;15.57;;
36599;SDS011;35385;55.668;37.508;2023-02-01T04:03:31;26.33;;;14.87;;
36599;SDS011;35385;55.668;37.508;2023-02-01T04:04:32;28.42;;;15.13;;
36599;SDS011;35385;55.668;37.508;2023-02-01T04:05:34;27.52;;;14.70;;
36599;SDS011;35385;55.668;37.508;2023-02-01T04:06:35;21.53;;;14.23;;
36599;SDS011;35385;55.668;37.508;2023-02-01T04:07:35;24.52;;;15.25;;
36599;SDS011;35385;55.668;37.508;2023-02-01T04:08:36;30.30;;;15.97;;
36599;SDS011;35385;55.668;37.508;2023-02-01T04:09:37;26.17;;;14.83;;
36599;SDS011;35385;55.668;37.508;2023-02-01T04:10:37;28.83;;;15.50;;
36599;SDS011;35385;55.668;37.508;2023-02-01T04:11:37;24.83;;;15.37;;
36599;SDS011;35385;55.668;37.508;2023-02-01T04:12:38;26.40;;;14.57;;
36599;SDS011;35385;55.668;37.508;2023-02-01T04:13:39;28.40;;;15.23;;
36599;SDS011;35385;55.668;37.508;2023-02-01T04:14:39;30.03;;;15.47;;
36599;SDS011;35385;55.668;37.508;2023-02-01T04:15:40;27.90;;;15.30;;
36599;SDS011;35385;55.668;37.508;2023-02-01T04:16:40;25.90;;;15.20;;
36599;SDS011;35385;55.668;37.508;2023-02-01T04:17:41;28.03;;;16.13;;
36599;SDS011;35385;55.668;37.508;2023-02-01T04:18:41;28.80;;;15.40;;
36599;SDS011;35385;55.668;37.508;2023-02-01T04:19:42;25.57;;;15.63;;
36599;SDS011;35385;55.668;37.508;2023-02-01T04:20:43;27.43;;;15.20;;
36599;SDS011;35385;55.668;37.508;2023-02-01T04:21:44;27.15;;;15.60;;
36599;SDS011;35385;55.668;37.508;2023-02-01T04:22:44;29.23;;;15.90;;
36599;SDS011;35385;55.668;37.508;2023-02-01T04:23:45;26.57;;;15.93;;
36599;SDS011;35385;55.668;37.508;2023-02-01T04:24:45;30.07;;;15.77;;
36599;SDS011;35385;55.668;37.508;2023-02-01T04:25:46;29.47;;;16.20;;
36599;SDS011;35385;55.668;37.508;2023-02-01T04:26:46;31.27;;;16.03;;
36599;SDS011;35385;55.668;37.508;2023-02-01T04:27:47;30.43;;;15.67;;
36599;SDS011;35385;55.668;37.508;2023-02-01T04:28:47;27.70;;;15.70;;
36599;SDS011;35385;55.668;37.508;2023-02-01T04:29:48;31.03;;;15.47;;
36599;SDS011;35385;55.668;37.508;2023-02-01T04:30:52;26.25;;;15.77;;
36599;SDS011;35385;55.668;37.508;2023-02-01T04:31:52;26.70;;;16.17;;
36599;SDS011;35385;55.668;37.508;2023-02-01T04:32:53;30.03;;;16.37;;
36599;SDS011;35385;55.668;37.508;2023-02-01T04:33:54;27.10;;;15.80;;
36599;SDS011;35385;55.668;37.508;2023-02-01T04:34:57;29.15;;;16.27;;
36599;SDS011;35385;55.668;37.508;2023-02-01T04:36:00;28.75;;;16.02;;
36599;SDS011;35385;55.668;37.508;2023-02-01T04:37:01;31.83;;;16.83;;
36599;SDS011;35385;55.668;37.508;2023-02-01T04:38:02;32.95;;;17.00;;
36599;SDS011;35385;55.668;37.508;2023-02-01T04:39:03;27.27;;;15.40;;
36599;SDS011;35385;55.668;37.508;2023-02-01T04:40:04;29.47;;;16.90;;
36599;SDS011;35385;55.668;37.508;2023-02-01T04:41:05;31.95;;;16.30;;
36599;SDS011;35385;55.668;37.508;2023-02-01T04:42:05;29.40;;;16.83;;
36599;SDS011;35385;55.668;37.508;2023-02-01T04:43:06;29.27;;;16.03;;
36599;SDS011;35385;55.668;37.508;2023-02-01T04:44:12;28.70;;;16.45;;
36599;SDS011;35385;55.668;37.508;2023-02-01T04:45:14;29.20;;;15.70;;
36599;SDS011;35385;55.668;37.508;2023-02-01T04:46:15;30.83;;;16.47;;
36599;SDS011;35385;55.668;37.508;2023-02-01T04:47:16;28.10;;;15.87;;
36599;SDS011;35385;55.668;37.508;2023-02-01T04:48:17;31.30;;;16.77;;
36599;SDS011;35385;55.668;37.508;2023-02-01T04:49:18;29.38;;;16.20;;
36599;SDS011;35385;55.668;37.508;2023-02-01T04:50:21;29.23;;;16.75;;
36599;SDS011;35385;55.668;37.508;2023-02-01T04:51:23;27.85;;;16.55;;
36599;SDS011;35385;55.668;37.508;2023-02-01T04:52:24;29.07;;;15.63;;
36599;SDS011;35385;55.668;37.508;2023-02-01T04:53:27;31.80;;;16.20;;
36599;SDS011;35385;55.668;37.508;2023-02-01T04:54:29;27.20;;;15.93;;
36599;SDS011;35385;55.668;37.508;2023-02-01T04:55:32;28.75;;;16.05;;
36599;SDS011;35385;55.668;37.508;2023-02-01T04:56:33;28.30;;;15.53;;
36599;SDS011;35385;55.668;37.508;2023-02-01T04:57:37;30.38;;;16.15;;
36599;SDS011;35385;55.668;37.508;2023-02-01T04:58:40;31.45;;;16.05;;
36599;SDS011;35385;55.668;37.508;2023-02-01T04:59:40;29.67;;;16.03;;
36599;SDS011;35385;55.668;37.508;2023-02-01T05:00:41;30.83;;;16.37;;
36599;SDS011;35385;55.668;37.508;2023-02-01T05:01:41;27.03;;;15.13;;
36599;SDS011;35385;55.668;37.508;2023-02-01T05:02:42;28.97;;;15.07;;
36599;SDS011;35385;55.668;37.508;2023-02-01T05:03:43;28.90;;;16.07;;
36599;SDS011;35385;55.668;37.508;2023-02-01T05:04:43;30.00;;;15.63;;
36599;SDS011;35385;55.668;37.508;2023-02-01T05:05:44;32.37;;;15.77;;
36599;SDS011;35385;55.668;37.508;2023-02-01T05:06:44;34.57;;;16.80;;
36599;SDS011;35385;55.668;37.508;2023-02-01T05:07:45;30.27;;;16.40;;
36599;SDS011;35385;55.668;37.508;2023-02-01T05:08:47;31.35;;;16.17;;
36599;SDS011;35385;55.668;37.508;2023-02-01T05:09:47;28.53;;;16.40;;
36599;SDS011;35385;55.668;37.508;2023-02-01T05:10:48;30.10;;;16.20;;
36599;SDS011;35385;55.668;37.508;2023-02-01T05:11:49;33.37;;;16.77;;
36599;SDS011;35385;55.668;37.508;2023-02-01T05:13:08;27.55;;;16.83;;
36599;SDS011;35385;55.668;37.508;2023-02-01T05:14:29;31.13;;;15.70;;
36599;SDS011;35385;55.668;37.508;2023-02-01T05:15:29;34.70;;;16.53;;
36599;SDS011;35385;55.668;37.508;2023-02-01T05:16:30;32.28;;;16.35;;
36599;SDS011;35385;55.668;37.508;2023-02-01T05:17:31;31.33;;;17.10;;
36599;SDS011;35385;55.668;37.508;2023-02-01T05:18:32;27.73;;;15.27;;
36599;SDS011;35385;55.668;37.508;2023-02-01T05:19:32;38.13;;;17.50;;
36599;SDS011;35385;55.668;37.508;2023-02-01T05:20:40;31.98;;;16.77;;
36599;SDS011;35385;55.668;37.508;2023-02-01T05:21:41;32.20;;;18.33;;
36599;SDS011;35385;55.668;37.508;2023-02-01T05:22:41;32.20;;;16.67;;
36599;SDS011;35385;55.668;37.508;2023-02-01T05:23:42;32.75;;;16.90;;
36599;SDS011;35385;55.668;37.508;2023-02-01T05:25:01;31.73;;;16.33;;
36599;SDS011;35385;55.668;37.508;2023-02-01T05:26:03;33.17;;;17.20;;
36599;SDS011;35385;55.668;37.508;2023-02-01T05:27:04;33.20;;;17.67;;
36599;SDS011;35385;55.668;37.508;2023-02-01T05:28:04;31.10;;;18.03;;
36599;SDS011;35385;55.668;37.508;2023-02-01T05:29:05;34.37;;;17.73;;
36599;SDS011;35385;55.668;37.508;2023-02-01T05:31:11;31.33;;;17.02;;
36599;SDS011;35385;55.668;37.508;2023-02-01T05:32:12;30.80;;;17.90;;
36599;SDS011;35385;55.668;37.508;2023-02-01T05:33:14;32.33;;;16.50;;
36599;SDS011;35385;55.668;37.508;2023-02-01T05:34:15;30.73;;;16.30;;
36599;SDS011;35385;55.668;37.508;2023-02-01T05:35:16;38.80;;;18.53;;
36599;SDS011;35385;55.668;37.508;2023-02-01T05:36:16;33.33;;;17.67;;
36599;SDS011;35385;55.668;37.508;2023-02-01T05:37:17;34.30;;;18.43;;
36599;SDS011;35385;55.668;37.508;2023-02-01T05:38:17;34.30;;;17.73;;
36599;SDS011;35385;55.668;37.508;2023-02-01T05:39:18;35.10;;;18.53;;
36599;SDS011;35385;55.668;37.508;2023-02-01T05:40:19;31.55;;;17.48;;
36599;SDS011;35385;55.668;37.508;2023-02-01T05:41:19;33.90;;;18.33;;
36599;SDS011;35385;55.668;37.508;2023-02-01T05:42:22;35.45;;;18.45;;
36599;SDS011;35385;55.668;37.508;2023-02-01T05:43:23;32.63;;;16.40;;
36599;SDS011;35385;55.668;37.508;2023-02-01T05:44:23;36.83;;;18.87;;
36599;SDS011;35385;55.668;37.508;2023-02-01T05:45:24;36.93;;;18.67;;
36599;SDS011;35385;55.668;37.508;2023-02-01T05:46:25;36.03;;;17.37;;
36599;SDS011;35385;55.668;37.508;2023-02-01T05:47:25;33.83;;;17.60;;
36599;SDS011;35385;55.668;37.508;2023-02-01T05:48:26;35.63;;;18.20;;
36599;SDS011;35385;55.668;37.508;2023-02-01T05:49:26;33.83;;;18.00;;
36599;SDS011;35385;55.668;37.508;2023-02-01T05:50:27;32.13;;;16.93;;
36599;SDS011;35385;55.668;37.508;2023-02-01T05:51:28;34.13;;;16.60;;
36599;SDS011;35385;55.668;37.508;2023-02-01T05:52:28;34.90;;;18.40;;
36599;SDS011;35385;55.668;37.508;2023-02-01T05:53:29;31.83;;;17.67;;
36599;SDS011;35385;55.668;37.508;2023-02-01T05:54:32;32.08;;;17.25;;
36599;SDS011;35385;55.668;37.508;2023-02-01T05:55:32;35.47;;;18.23;;
36599;SDS011;35385;55.668;37.508;2023-02-01T05:56:33;35.87;;;18.03;;
36599;SDS011;35385;55.668;37.508;2023-02-01T05:57:33;30.73;;;18.00;;
36599;SDS011;35385;55.668;37.508;2023-02-01T05:58:34;36.83;;;18.07;;
36599;SDS011;35385;55.668;37.508;2023-02-01T05:59:35;35.70;;;18.50;;
36599;SDS011;35385;55.668;37.508;2023-02-01T06:00:41;35.83;;;19.20;;
36599;SDS011;35385;55.668;37.508;2023-02-01T06:01:41;37.50;;;19.53;;
36599;SDS011;35385;55.668;37.508;2023-02-01T06:02:44;36.25;;;18.40;;
36599;SDS011;35385;55.668;37.508;2023-02-01T06:03:45;36.30;;;18.33;;
36599;SDS011;35385;55.668;37.508;2023-02-01T06:04:45;34.43;;;18.33;;
36599;SDS011;35385;55.668;37.508;2023-02-01T06:05:46;35.37;;;18.27;;
36599;SDS011;35385;55.668;37.508;2023-02-01T06:06:47;33.75;;;17.85;;
36599;SDS011;35385;55.668;37.508;2023-02-01T06:07:50;36.10;;;18.02;;
36599;SDS011;35385;55.668;37.508;2023-02-01T06:08:53;35.13;;;18.33;;
36599;SDS011;35385;55.668;37.508;2023-02-01T06:09:54;35.33;;;19.00;;
36599;SDS011;35385;55.668;37.508;2023-02-01T06:11:01;34.63;;;18.03;;
36599;SDS011;35385;55.668;37.508;2023-02-01T06:12:05;35.95;;;18.45;;
36599;SDS011;35385;55.668;37.508;2023-02-01T06:13:06;34.72;;;18.23;;
36599;SDS011;35385;55.668;37.508;2023-02-01T06:14:07;33.60;;;17.05;;
36599;SDS011;35385;55.668;37.508;2023-02-01T06:15:08;32.60;;;17.57;;
36599;SDS011;35385;55.668;37.508;2023-02-01T06:16:09;44.22;;;20.00;;
36599;SDS011;35385;55.668;37.508;2023-02-01T06:17:09;33.50;;;17.83;;
36599;SDS011;35385;55.668;37.508;2023-02-01T06:18:10;29.77;;;16.33;;
36599;SDS011;35385;55.668;37.508;2023-02-01T06:19:10;34.13;;;17.97;;
36599;SDS011;35385;55.668;37.508;2023-02-01T06:20:12;34.43;;;18.13;;
36599;SDS011;35385;55.668;37.508;2023-02-01T06:21:14;35.60;;;18.48;;
36599;SDS011;35385;55.668;37.508;2023-02-01T06:22:23;35.78;;;18.65;;
36599;SDS011;35385;55.668;37.508;2023-02-01T06:23:26;35.60;;;17.88;;
36599;SDS011;35385;55.668;37.508;2023-02-01T06:24:27;37.20;;;18.58;;
36599;SDS011;35385;55.668;37.508;2023-02-01T06:25:28;34.70;;;18.83;;
36599;SDS011;35385;55.668;37.508;2023-02-01T06:26:29;35.03;;;17.27;;
36599;SDS011;35385;55.668;37.508;2023-02-01T06:27:32;39.25;;;17.85;;
36599;SDS011;35385;55.668;37.508;2023-02-01T06:28:33;31.98;;;18.67;;
36599;SDS011;35385;55.668;37.508;2023-02-01T06:29:34;34.70;;;17.88;;
36599;SDS011;35385;55.668;37.508;2023-02-01T06:30:35;34.05;;;17.75;;
36599;SDS011;35385;55.668;37.508;2023-02-01T06:31:36;35.33;;;18.33;;
36599;SDS011;35385;55.668;37.508;2023-02-01T06:32:36;35.63;;;18.87;;
36599;SDS011;35385;55.668;37.508;2023-02-01T06:33:37;32.43;;;18.47;;
36599;SDS011;35385;55.668;37.508;2023-02-01T06:34:38;37.03;;;18.20;;
36599;SDS011;35385;55.668;37.508;2023-02-01T06:35:39;31.92;;;18.25;;
36599;SDS011;35385;55.668;37.508;2023-02-01T06:36:42;37.83;;;19.17;;
36599;SDS011;35385;55.668;37.508;2023-02-01T06:37:42;37.77;;;18.97;;
36599;SDS011;35385;55.668;37.508;2023-02-01T06:38:43;34.67;;;18.30;;
36599;SDS011;35385;55.668;37.508;2023-02-01T06:39:46;33.35;;;18.27;;
36599;SDS011;35385;55.668;37.508;2023-02-01T06:40:51;38.13;;;18.50;;
36599;SDS011;35385;55.668;37.508;2023-02-01T06:41:56;36.47;;;18.77;;
36599;SDS011;35385;55.668;37.508;2023-02-01T06:42:57;32.77;;;17.97;;
36599;SDS011;35385;55.668;37.508;2023-02-01T06:43:58;37.80;;;18.42;;
36599;SDS011;35385;55.668;37.508;2023-02-01T06:44:59;33.27;;;17.37;;
36599;SDS011;35385;55.668;37.508;2023-02-01T06:46:00;39.40;;;19.67;;
36599;SDS011;35385;55.668;37.508;2023-02-01T06:47:04;35.72;;;19.73;;
36599;SDS011;35385;55.668;37.508;2023-02-01T06:48:05;35.77;;;17.73;;
36599;SDS011;35385;55.668;37.508;2023-02-01T06:49:06;37.17;;;18.57;;
36599;SDS011;35385;55.668;37.508;2023-02-01T06:50:07;34.13;;;18.23;;